Time;durP1;ratioP1;P1;durP2;ratioP2;P2;SDS_P1;SDS_P2;PMS_P1;PMS_P2;Temp;Humidity;BMP_temperature;BMP_pressure;BME280_temperature;BME280_humidity;BME280_pressure;Samples;Min_cycle;Max_cycle;Signal;HPM_P1;HPM_P2
2023/03/01 00:02:22;;;;;;;80.00;66.55;;;;;;;4.36;100.00;102190.00;5052517;28;20123;-78
2023/03/01 00:04:49;;;;;;;77.47;54.13;;;;;;;4.47;100.00;102188.25;5052907;28;20045;-77
2023/03/01 00:07:17;;;;;;;67.15;49.28;;;;;;;4.39;100.00;102185.44;5052944;28;20130;-78
2023/03/01 00:09:45;;;;;;;71.80;47.10;;;;;;;4.36;100.00;102181.28;5052823;28;20053;-77
2023/03/01 00:12:12;;;;;;;72.57;50.00;;;;;;;4.33;100.00;102182.38;5052777;28;20146;-78
2023/03/01 00:14:39;;;;;;;59.72;45.13;;;;;;;4.33;100.00;102176.28;5052629;28;20107;-77
2023/03/01 00:17:06;;;;;;;55.03;41.72;;;;;;;4.28;100.00;102176.66;5052491;28;20060;-78
2023/03/01 00:19:33;;;;;;;60.58;44.65;;;;;;;4.43;100.00;102158.75;5052848;28;20071;-78
2023/03/01 00:22:00;;;;;;;58.38;41.22;;;;;;;4.28;100.00;102160.03;5052329;28;20059;-77
2023/03/01 00:24:28;;;;;;;67.32;45.47;;;;;;;4.34;100.00;102154.25;5052454;28;20102;-77
2023/03/01 00:26:56;;;;;;;63.35;44.13;;;;;;;4.24;100.00;102158.66;5052533;28;20056;-78
2023/03/01 00:29:23;;;;;;;67.70;44.75;;;;;;;4.30;100.00;102153.69;5052505;28;20049;-78
2023/03/01 00:31:50;;;;;;;59.40;42.78;;;;;;;4.23;100.00;102155.16;5052555;28;20049;-78
2023/03/01 00:34:17;;;;;;;59.00;42.35;;;;;;;4.17;100.00;102160.09;5052435;28;20472;-78
2023/03/01 00:36:44;;;;;;;55.10;39.55;;;;;;;4.20;100.00;102154.59;5052169;28;20493;-78
2023/03/01 00:39:13;;;;;;;53.45;41.90;;;;;;;4.13;100.00;102151.66;5052418;28;20052;-78
2023/03/01 00:41:41;;;;;;;53.13;42.42;;;;;;;4.24;100.00;102156.84;5052022;28;20107;-78
2023/03/01 00:44:08;;;;;;;57.22;49.25;;;;;;;4.07;100.00;102160.88;5052396;28;20461;-78
2023/03/01 00:46:34;;;;;;;51.30;44.47;;;;;;;4.12;100.00;102158.72;5052173;28;20045;-78
2023/03/01 00:49:02;;;;;;;53.75;45.38;;;;;;;4.17;100.00;102150.41;5052389;28;20114;-78
2023/03/01 00:51:29;;;;;;;49.25;43.03;;;;;;;4.17;100.00;102149.59;5052318;28;20136;-78
2023/03/01 00:53:58;;;;;;;53.03;43.72;;;;;;;4.11;100.00;102148.31;5052213;28;20049;-78
2023/03/01 00:56:24;;;;;;;48.72;37.85;;;;;;;4.11;100.00;102148.31;5052005;28;20052;-78
2023/03/01 00:58:52;;;;;;;50.63;37.40;;;;;;;4.06;100.00;102153.97;5051988;28;20049;-77
2023/03/01 01:01:21;;;;;;;49.88;40.03;;;;;;;4.04;100.00;102152.41;5051957;28;20045;-78
2023/03/01 01:03:49;;;;;;;51.90;40.97;;;;;;;4.04;100.00;102136.63;5052029;28;20045;-78
2023/03/01 01:06:22;;;;;;;57.42;46.13;;;;;;;4.14;100.00;102132.25;5052056;28;20056;-78
2023/03/01 01:08:49;;;;;;;51.83;41.15;;;;;;;3.98;100.00;102132.72;5052070;28;20052;-78
2023/03/01 01:11:16;;;;;;;61.25;45.67;;;;;;;4.19;100.00;102121.38;5051905;28;20640;-78
2023/03/01 01:13:45;;;;;;;56.35;46.22;;;;;;;4.06;100.00;102121.56;5052049;28;20049;-78
2023/03/01 01:16:14;;;;;;;57.47;45.10;;;;;;;3.98;100.00;102124.84;5052068;28;20110;-78
2023/03/01 01:18:41;;;;;;;64.25;49.45;;;;;;;3.97;100.00;102119.72;5051942;28;20049;-78
2023/03/01 01:21:10;;;;;;;65.38;48.75;;;;;;;4.07;100.00;102120.59;5051838;28;20597;-78
2023/03/01 01:23:37;;;;;;;59.38;45.88;;;;;;;4.57;100.00;102112.84;5052098;28;20056;-78
2023/03/01 01:26:06;;;;;;;57.35;44.03;;;;;;;4.28;100.00;102105.63;5051814;28;20049;-78
2023/03/01 01:28:33;;;;;;;61.13;44.75;;;;;;;4.45;100.00;102103.34;5053128;28;20114;-78
2023/03/01 01:30:59;;;;;;;59.83;47.38;;;;;;;4.09;100.00;102110.81;5055499;28;20107;-78
2023/03/01 01:33:28;;;;;;;62.35;50.33;;;;;;;4.69;100.00;102098.63;5055920;28;20128;-78
2023/03/01 01:35:54;;;;;;;61.15;52.92;;;;;;;4.18;100.00;102094.25;5055920;28;20045;-78
2023/03/01 01:38:22;;;;;;;62.17;52.40;;;;;;;4.17;100.00;102086.47;5055515;28;20498;-78
2023/03/01 01:40:50;;;;;;;61.10;48.33;;;;;;;4.35;100.00;102088.34;5055782;28;20452;-78
2023/03/01 01:43:22;;;;;;;57.10;46.30;;;;;;;4.78;100.00;102074.13;5055442;28;20052;-78
2023/03/01 01:45:56;;;;;;;58.47;48.67;;;;;;;4.76;100.00;102085.75;5055569;28;20103;-78
2023/03/01 01:48:36;;;;;;;55.17;43.35;;;;;;;4.22;100.00;102081.66;5055327;28;20057;-78
2023/03/01 01:51:04;;;;;;;59.72;45.83;;;;;;;4.06;100.00;102072.44;5055530;28;20052;-77
2023/03/01 01:53:31;;;;;;;61.50;46.95;;;;;;;4.00;100.00;102080.03;5055230;28;20045;-77
2023/03/01 01:56:01;;;;;;;58.15;46.70;;;;;;;4.06;100.00;102080.34;5055062;28;20509;-78
2023/03/01 01:58:31;;;;;;;62.35;46.03;;;;;;;4.26;100.00;102072.53;5055443;28;20053;-78
2023/03/01 02:00:58;;;;;;;61.40;48.45;;;;;;;4.15;100.00;102073.47;5054696;28;20110;-78
2023/03/01 02:03:29;;;;;;;60.25;46.33;;;;;;;3.94;100.00;102073.50;5055123;28;20099;-78
2023/03/01 02:06:04;;;;;;;65.68;51.50;;;;;;;3.91;100.00;102071.13;5054916;28;20049;-78
2023/03/01 02:08:36;;;;;;;58.75;43.28;;;;;;;3.83;100.00;102061.22;5055302;28;20216;-78
2023/03/01 02:11:04;;;;;;;57.65;43.92;;;;;;;4.79;100.00;102059.16;5055227;28;20049;-78
2023/03/01 02:13:31;;;;;;;73.10;53.95;;;;;;;3.87;100.00;102054.78;5055061;28;20114;-78
2023/03/01 02:15:58;;;;;;;67.80;53.83;;;;;;;4.01;100.00;102056.22;5054987;28;20049;-78
2023/03/01 02:18:25;;;;;;;62.42;46.13;;;;;;;4.01;100.00;102052.75;5054729;28;20488;-78
2023/03/01 02:21:04;;;;;;;63.03;43.35;;;;;;;4.54;100.00;102048.16;5054794;28;20102;-78
2023/03/01 02:23:33;;;;;;;64.63;50.15;;;;;;;3.96;100.00;102049.69;5054918;28;20119;-78
2023/03/01 02:26:07;;;;;;;64.38;48.78;;;;;;;4.51;100.00;102048.41;5054752;28;20525;-78
2023/03/01 02:28:37;;;;;;;59.47;43.92;;;;;;;4.78;100.00;102041.69;5054944;28;20485;-78
2023/03/01 02:33:52;;;;;;;65.03;50.85;;;;;;;3.88;100.00;102050.34;5054609;28;20102;-78
2023/03/01 02:36:20;;;;;;;70.90;59.83;;;;;;;4.10;100.00;102044.91;5054415;28;20399;-77
2023/03/01 02:38:48;;;;;;;73.30;59.28;;;;;;;4.00;100.00;102059.00;5054505;28;20114;-78
2023/03/01 02:41:18;;;;;;;68.20;53.35;;;;;;;4.05;100.00;102052.34;5054303;28;20053;-78
2023/03/01 02:43:47;;;;;;;70.78;56.33;;;;;;;4.14;100.00;102056.00;5054477;28;20044;-77
2023/03/01 02:46:16;;;;;;;70.85;63.05;;;;;;;4.12;100.00;102068.47;5054259;28;20115;-78
2023/03/01 02:48:46;;;;;;;76.03;61.65;;;;;;;4.07;100.00;102066.22;5054085;28;20135;-77
2023/03/01 02:51:28;;;;;;;72.05;58.22;;;;;;;3.94;100.00;102065.59;5054467;28;20114;-77
2023/03/01 02:54:06;;;;;;;81.80;73.22;;;;;;;4.04;100.00;102061.22;5054446;28;20103;-77
2023/03/01 02:56:33;;;;;;;68.28;55.53;;;;;;;3.76;100.00;102067.97;5054219;28;20174;-78
2023/03/01 02:59:02;;;;;;;74.32;55.97;;;;;;;3.99;100.00;102071.28;5053881;28;20053;-77
2023/03/01 03:01:36;;;;;;;72.28;57.83;;;;;;;3.83;100.00;102074.38;5053835;28;20114;-78
2023/03/01 03:04:04;;;;;;;74.72;63.67;;;;;;;3.85;100.00;102067.22;5054063;28;20049;-78
2023/03/01 03:06:30;;;;;;;69.22;59.95;;;;;;;3.94;100.00;102062.16;5054042;28;20052;-78
2023/03/01 03:08:57;;;;;;;67.28;52.63;;;;;;;3.85;100.00;102067.22;5053743;28;20060;-78
2023/03/01 03:11:24;;;;;;;75.63;59.10;;;;;;;3.85;100.00;102069.84;5054023;28;20049;-77
2023/03/01 03:13:51;;;;;;;74.70;62.70;;;;;;;3.92;100.00;102064.88;5053940;28;20041;-77
2023/03/01 03:16:20;;;;;;;66.82;58.35;;;;;;;3.85;100.00;102063.75;5053969;28;20494;-78
2023/03/01 03:18:47;;;;;;;73.20;63.80;;;;;;;3.79;100.00;102067.72;5053561;28;20053;-77
2023/03/01 03:21:14;;;;;;;66.43;55.08;;;;;;;3.86;100.00;102071.50;5053760;28;20103;-78
2023/03/01 03:23:41;;;;;;;68.75;55.55;;;;;;;3.78;100.00;102073.94;5053368;28;20048;-78
2023/03/01 03:26:08;;;;;;;62.90;48.60;;;;;;;3.75;100.00;102065.47;5053652;28;20057;-78
2023/03/01 03:28:35;;;;;;;62.00;44.83;;;;;;;3.87;100.00;102065.28;5053686;28;20122;-78
2023/03/01 03:31:03;;;;;;;65.00;45.70;;;;;;;3.88;100.00;102064.31;5053295;28;20490;-78
2023/03/01 03:33:31;;;;;;;59.03;42.10;;;;;;;4.37;100.00;102054.03;5053308;28;20084;-77
2023/03/01 03:35:58;;;;;;;58.58;41.92;;;;;;;3.88;100.00;102040.66;5053643;28;20053;-78
2023/03/01 03:38:25;;;;;;;61.55;44.97;;;;;;;3.87;100.00;102043.41;5053409;28;20134;-78
2023/03/01 03:41:00;;;;;;;62.83;47.33;;;;;;;3.79;100.00;102044.06;5053544;28;20048;-78
2023/03/01 03:43:27;;;;;;;63.28;44.95;;;;;;;4.00;100.00;102043.22;5053238;28;20049;-77
2023/03/01 03:45:56;;;;;;;60.38;42.95;;;;;;;3.96;100.00;102054.94;5053324;28;20106;-77
2023/03/01 03:48:24;;;;;;;57.78;43.00;;;;;;;4.14;100.00;102048.13;5053255;28;20087;-78
2023/03/01 03:50:54;;;;;;;58.55;44.53;;;;;;;3.90;100.00;102051.03;5052502;28;20041;-78
2023/03/01 03:53:21;;;;;;;61.85;43.65;;;;;;;3.89;100.00;102057.25;5052808;28;20045;-78
2023/03/01 03:55:49;;;;;;;58.80;45.40;;;;;;;3.83;100.00;102050.72;5053261;28;20057;-78
2023/03/01 03:58:19;;;;;;;61.45;41.67;;;;;;;4.06;100.00;102046.16;5042878;28;20132;-78
2023/03/01 04:00:47;;;;;;;56.88;40.63;;;;;;;4.17;100.00;102057.53;5032610;28;20509;-77
2023/03/01 04:03:16;;;;;;;55.22;40.05;;;;;;;4.08;100.00;102059.97;5033062;28;20050;-78
2023/03/01 04:05:43;;;;;;;57.83;40.25;;;;;;;4.02;100.00;102062.31;5032944;28;20050;-78
2023/03/01 04:08:11;;;;;;;60.70;42.88;;;;;;;4.23;100.00;102057.84;5033011;28;20111;-78
2023/03/01 04:10:40;;;;;;;61.53;42.83;;;;;;;4.10;100.00;102060.69;5033075;28;20053;-78
2023/03/01 04:13:08;;;;;;;64.05;43.42;;;;;;;4.08;100.00;102059.16;5033004;28;20053;-78
2023/03/01 04:15:35;;;;;;;65.40;43.63;;;;;;;4.01;100.00;102060.66;5033063;28;20042;-78
2023/03/01 04:18:02;;;;;;;57.65;43.13;;;;;;;4.13;100.00;102056.97;5032879;28;20049;-78
2023/03/01 04:20:32;;;;;;;59.20;45.45;;;;;;;4.09;100.00;102069.56;5032399;28;20133;-78
2023/03/01 04:23:10;;;;;;;65.95;48.22;;;;;;;3.98;100.00;102072.25;5032531;28;20049;-78
2023/03/01 04:25:38;;;;;;;56.92;42.25;;;;;;;4.11;100.00;102072.03;5032678;28;20073;-78
2023/03/01 04:28:05;;;;;;;59.35;43.90;;;;;;;4.05;100.00;102069.94;5032802;28;20115;-77
2023/03/01 04:30:35;;;;;;;65.53;51.90;;;;;;;3.97;100.00;102078.47;5032718;28;20054;-77
2023/03/01 04:33:03;;;;;;;64.70;45.50;;;;;;;3.96;100.00;102071.53;5032705;28;20045;-78
2023/03/01 04:35:30;;;;;;;66.68;46.85;;;;;;;3.99;100.00;102067.81;5032636;28;20141;-78
2023/03/01 04:37:57;;;;;;;69.35;47.28;;;;;;;4.01;100.00;102071.16;5032649;28;20053;-77
2023/03/01 04:40:23;;;;;;;67.78;45.05;;;;;;;3.96;100.00;102070.72;5032207;28;20049;-77
2023/03/01 04:42:52;;;;;;;73.00;49.83;;;;;;;4.01;100.00;102068.53;5032451;28;20049;-77
2023/03/01 04:45:18;;;;;;;67.35;46.55;;;;;;;3.97;100.00;102070.59;5032079;28;20042;-78
2023/03/01 04:47:47;;;;;;;67.68;45.55;;;;;;;4.07;100.00;102068.84;5032095;28;20053;-77
2023/03/01 04:50:16;;;;;;;60.45;44.05;;;;;;;4.20;100.00;102063.38;5032444;28;20057;-78
2023/03/01 04:52:43;;;;;;;71.75;48.45;;;;;;;3.93;100.00;102063.91;5032334;28;20049;-78
2023/03/01 04:55:11;;;;;;;67.85;49.63;;;;;;;4.10;100.00;102068.59;5032308;28;20100;-78
2023/03/01 04:57:38;;;;;;;72.43;57.60;;;;;;;3.96;100.00;102070.72;5032028;28;20053;-78
2023/03/01 05:00:19;;;;;;;62.67;53.17;;;;;;;4.01;100.00;102071.16;5032261;28;20477;-78
2023/03/01 05:02:52;;;;;;;68.13;53.00;;;;;;;4.08;100.00;102069.66;5031958;28;20107;-77
2023/03/01 05:05:21;;;;;;;71.75;49.60;;;;;;;3.99;100.00;102070.47;5055232;28;20489;-78
2023/03/01 05:07:48;;;;;;;71.32;51.88;;;;;;;4.04;100.00;102076.16;5055888;28;20106;-78
2023/03/01 05:10:15;;;;;;;68.43;50.08;;;;;;;3.94;100.00;102073.50;5055492;28;20056;-78
2023/03/01 05:12:41;;;;;;;71.95;51.20;;;;;;;3.83;100.00;102079.63;5055961;28;20049;-77
2023/03/01 05:15:11;;;;;;;74.53;54.10;;;;;;;3.79;100.00;102062.47;5055106;28;20049;-77
2023/03/01 05:17:37;;;;;;;73.63;53.80;;;;;;;3.89;100.00;102065.16;5055381;28;20075;-77
2023/03/01 05:20:08;;;;;;;78.85;55.17;;;;;;;3.93;100.00;102065.72;5056172;28;20098;-77
2023/03/01 05:22:35;;;;;;;76.60;56.15;;;;;;;3.89;100.00;102062.50;5055259;28;20053;-78
2023/03/01 05:25:02;;;;;;;72.57;56.75;;;;;;;3.93;100.00;102070.97;5055698;28;20106;-78
2023/03/01 05:27:29;;;;;;;69.68;51.28;;;;;;;3.94;100.00;102070.03;5055534;28;20052;-77
2023/03/01 05:29:56;;;;;;;74.50;53.65;;;;;;;3.94;100.00;102070.03;5055877;28;20055;-77
2023/03/01 05:32:24;;;;;;;66.85;47.00;;;;;;;3.91;100.00;102063.22;5055933;28;20119;-78
2023/03/01 05:34:51;;;;;;;60.08;44.70;;;;;;;3.91;100.00;102068.50;5055865;28;20045;-77
2023/03/01 05:37:19;;;;;;;67.38;52.30;;;;;;;3.99;100.00;102068.66;5055571;28;20131;-78
2023/03/01 05:39:46;;;;;;;63.08;47.63;;;;;;;3.93;100.00;102065.72;5055489;28;20045;-77
2023/03/01 05:42:12;;;;;;;73.43;54.95;;;;;;;3.95;100.00;102072.50;5055551;28;20049;-77
2023/03/01 05:44:40;;;;;;;61.60;48.03;;;;;;;4.02;100.00;102065.75;5055621;28;20045;-78
2023/03/01 05:47:07;;;;;;;57.95;43.58;;;;;;;4.16;100.00;102072.50;5055268;28;20060;-78
2023/03/01 05:49:35;;;;;;;63.58;48.30;;;;;;;4.08;100.00;102069.66;5055519;28;20423;-78
2023/03/01 05:52:02;;;;;;;61.80;45.20;;;;;;;4.10;100.00;102067.75;5055205;28;20135;-78
2023/03/01 05:54:28;;;;;;;60.17;44.05;;;;;;;4.23;100.00;102057.84;5055200;28;20525;-78
2023/03/01 05:56:56;;;;;;;63.53;44.17;;;;;;;4.17;100.00;102063.63;5055489;28;20052;-78
2023/03/01 05:59:23;;;;;;;56.35;43.08;;;;;;;4.20;100.00;102067.78;5055508;28;20053;-78
2023/03/01 06:01:49;;;;;;;75.10;53.10;;;;;;;4.13;100.00;102068.31;5054978;28;20049;-78
2023/03/01 06:04:16;;;;;;;57.85;45.00;;;;;;;4.28;100.00;102058.28;5055283;28;20122;-78
2023/03/01 06:06:44;;;;;;;55.50;43.35;;;;;;;4.16;100.00;102063.78;5055256;28;20126;-78
2023/03/01 06:09:11;;;;;;;58.42;41.53;;;;;;;4.17;100.00;102066.25;5054793;28;20494;-77
2023/03/01 06:11:38;;;;;;;57.85;42.97;;;;;;;4.28;100.00;102075.88;5055180;28;20045;-78
2023/03/01 06:14:06;;;;;;;56.70;42.92;;;;;;;4.22;100.00;102066.72;5054361;28;20044;-78
2023/03/01 06:16:32;;;;;;;56.08;42.67;;;;;;;4.26;100.00;102072.53;5055219;28;20132;-78
2023/03/01 06:18:59;;;;;;;57.00;43.97;;;;;;;4.24;100.00;102066.59;5054647;28;20053;-78
2023/03/01 06:21:26;;;;;;;54.75;40.90;;;;;;;4.27;100.00;102072.41;5054952;28;20403;-78
2023/03/01 06:23:54;;;;;;;57.17;42.88;;;;;;;4.23;100.00;102073.63;5054562;28;20449;-78
2023/03/01 06:26:21;;;;;;;62.38;44.90;;;;;;;4.19;100.00;102077.50;5054570;28;20513;-78
2023/03/01 06:28:48;;;;;;;63.65;46.35;;;;;;;4.25;100.00;102073.50;5054832;28;20052;-78
2023/03/01 06:31:14;;;;;;;58.55;42.38;;;;;;;4.32;100.00;102067.56;5054728;28;20067;-78
2023/03/01 06:33:41;;;;;;;58.28;43.42;;;;;;;4.25;100.00;102076.13;5054772;28;20049;-78
2023/03/01 06:36:09;;;;;;;55.13;41.08;;;;;;;4.28;100.00;102078.50;5054783;28;20049;-78
2023/03/01 06:38:36;;;;;;;55.13;43.42;;;;;;;4.39;100.00;102073.16;5054545;28;20438;-78
2023/03/01 06:41:05;;;;;;;59.95;48.45;;;;;;;4.31;100.00;102068.53;5054614;28;20055;-78
2023/03/01 06:43:31;;;;;;;61.17;45.10;;;;;;;4.47;100.00;102073.31;5054174;28;20049;-78
2023/03/01 06:45:58;;;;;;;60.38;45.15;;;;;;;4.42;100.00;102080.78;5054240;28;20110;-78
2023/03/01 06:48:25;;;;;;;61.50;44.97;;;;;;;4.65;100.00;102067.44;5054233;28;20049;-78
2023/03/01 06:50:51;;;;;;;61.78;44.42;;;;;;;4.50;100.00;102073.03;5054587;28;20107;-78
2023/03/01 06:53:18;;;;;;;63.25;47.17;;;;;;;4.52;100.00;102078.19;5054281;28;20057;-78
2023/03/01 06:55:45;;;;;;;60.35;45.67;;;;;;;4.59;100.00;102076.69;5054479;28;20045;-78
2023/03/01 06:58:13;;;;;;;67.35;48.05;;;;;;;4.61;100.00;102071.31;5054226;28;20053;-78
2023/03/01 07:00:40;;;;;;;60.45;45.55;;;;;;;4.63;100.00;102069.34;5053970;28;20049;-78
2023/03/01 07:03:07;;;;;;;60.22;46.97;;;;;;;4.60;100.00;102073.09;5054204;28;20130;-78
2023/03/01 07:05:34;;;;;;;60.53;45.70;;;;;;;4.58;100.00;102075.84;5054106;28;20041;-78
2023/03/01 07:08:01;;;;;;;59.85;45.70;;;;;;;5.05;100.00;102078.75;5054155;28;20485;-78
2023/03/01 07:10:28;;;;;;;56.42;43.17;;;;;;;4.85;100.00;102079.69;5054137;28;20130;-78
2023/03/01 07:12:56;;;;;;;57.90;43.55;;;;;;;4.74;100.00;102082.41;5053859;28;20053;-78
2023/03/01 07:15:24;;;;;;;67.05;51.83;;;;;;;4.72;100.00;102079.94;5054089;28;20114;-78
2023/03/01 07:17:51;;;;;;;62.08;52.53;;;;;;;4.52;100.00;102081.66;5053955;28;20494;-78
2023/03/01 07:20:18;;;;;;;60.20;47.88;;;;;;;4.54;100.00;102085.00;5053841;28;20057;-78
2023/03/01 07:22:45;;;;;;;70.97;51.22;;;;;;;4.45;100.00;102083.16;5053668;28;20099;-78
2023/03/01 07:25:12;;;;;;;66.63;48.28;;;;;;;4.57;100.00;102084.72;5053128;28;20571;-78
2023/03/01 07:27:38;;;;;;;68.90;53.88;;;;;;;4.76;100.00;102083.94;5052917;28;20106;-78
2023/03/01 07:30:07;;;;;;;70.88;52.17;;;;;;;4.88;100.00;102087.31;5053747;28;20485;-78
2023/03/01 07:32:35;;;;;;;65.72;49.38;;;;;;;4.77;100.00;102090.03;5053815;28;20064;-78
2023/03/01 07:35:01;;;;;;;60.67;45.63;;;;;;;4.48;100.00;102080.25;5053611;28;20053;-77
2023/03/01 07:37:28;;;;;;;67.60;49.30;;;;;;;4.94;100.00;102078.88;5053689;28;20648;-78
2023/03/01 07:39:55;;;;;;;65.65;48.72;;;;;;;5.07;100.00;102086.50;5053588;28;20114;-78
2023/03/01 07:42:21;;;;;;;79.47;55.40;;;;;;;4.78;100.00;102079.41;5053127;28;20502;-78
2023/03/01 07:44:48;;;;;;;72.15;53.63;;;;;;;4.69;100.00;102090.72;5053317;28;20052;-78
2023/03/01 07:47:15;;;;;;;63.80;47.83;;;;;;;4.85;100.00;102086.75;5052994;28;20102;-78
2023/03/01 07:49:43;;;;;;;61.80;45.90;;;;;;;4.85;100.00;102092.00;5053415;28;20045;-78
2023/03/01 07:52:11;;;;;;;60.33;48.20;;;;;;;4.80;100.00;102089.78;5053355;28;20053;-77
2023/03/01 07:54:38;;;;;;;62.17;46.88;;;;;;;5.32;100.00;102087.78;5053091;28;20131;-78
2023/03/01 07:57:05;;;;;;;56.53;45.83;;;;;;;5.40;100.00;102082.66;5053154;28;20118;-78
2023/03/01 07:59:32;;;;;;;56.50;45.33;;;;;;;5.08;100.00;102090.78;5052731;28;20098;-78
2023/03/01 08:01:59;;;;;;;56.15;44.60;;;;;;;4.93;100.00;102089.53;5052539;28;20411;-78
2023/03/01 08:04:26;;;;;;;70.20;51.03;;;;;;;4.84;100.00;102091.16;5052970;28;20053;-78
2023/03/01 08:06:54;;;;;;;62.38;49.05;;;;;;;4.98;100.00;102080.25;5052931;28;20057;-78
2023/03/01 08:09:22;;;;;;;59.60;46.40;;;;;;;5.03;100.00;102085.94;5053085;28;20118;-77
2023/03/01 08:11:49;;;;;;;58.67;48.22;;;;;;;5.09;100.00;102091.66;5053113;28;20045;-78
2023/03/01 08:14:15;;;;;;;58.85;43.70;;;;;;;5.03;100.00;102096.47;5053007;28;20099;-78
2023/03/01 08:16:44;;;;;;;61.63;46.63;;;;;;;4.91;100.00;102096.75;5052644;28;20057;-77
2023/03/01 08:19:13;;;;;;;67.72;53.38;;;;;;;4.81;100.00;102089.66;5052559;28;20045;-77
2023/03/01 08:21:40;;;;;;;65.30;48.40;;;;;;;5.08;100.00;102095.22;5052437;28;20166;-77
2023/03/01 08:24:10;;;;;;;86.97;59.53;;;;;;;5.04;100.00;102098.13;5052710;28;20045;-78
2023/03/01 08:26:37;;;;;;;167.95;106.90;;;;;;;4.99;100.00;102096.88;5052714;28;20140;-78
2023/03/01 08:29:04;;;;;;;96.53;65.53;;;;;;;4.93;100.00;102087.75;5052546;28;20126;-78
2023/03/01 08:31:33;;;;;;;70.00;53.83;;;;;;;5.00;100.00;102085.41;5052316;28;20106;-78
2023/03/01 08:34:02;;;;;;;66.07;54.13;;;;;;;5.12;100.00;102086.09;5052528;28;20087;-78
2023/03/01 08:36:30;;;;;;;63.78;48.35;;;;;;;5.45;100.00;102083.06;5052727;28;20505;-78
2023/03/01 08:38:56;;;;;;;65.53;50.28;;;;;;;5.45;100.00;102087.53;5052317;28;20048;-78
2023/03/01 08:41:25;;;;;;;60.92;47.22;;;;;;;5.20;100.00;102088.88;5052407;28;20049;-78
2023/03/01 08:43:52;;;;;;;68.47;47.70;;;;;;;5.17;100.00;102084.69;5052144;28;20469;-78
2023/03/01 08:46:19;;;;;;;62.50;47.72;;;;;;;5.20;100.00;102081.78;5052286;28;20084;-78
2023/03/01 08:48:46;;;;;;;64.80;50.50;;;;;;;5.44;100.00;102081.38;5052502;28;20122;-78
2023/03/01 08:51:14;;;;;;;57.85;48.90;;;;;;;5.19;100.00;102077.50;5052409;28;20092;-78
2023/03/01 08:53:41;;;;;;;63.25;48.28;;;;;;;5.38;100.00;102075.84;5051997;28;20049;-78
2023/03/01 08:56:09;;;;;;;60.85;51.30;;;;;;;5.57;100.00;102075.00;5052362;28;20056;-78
2023/03/01 08:58:37;;;;;;;62.72;46.67;;;;;;;5.58;100.00;102068.78;5052325;28;20049;-78
2023/03/01 09:01:08;;;;;;;55.03;45.03;;;;;;;5.39;100.00;102065.19;5051770;28;20049;-78
2023/03/01 09:03:35;;;;;;;59.80;48.90;;;;;;;5.42;100.00;102061.44;5052082;28;20556;-78
2023/03/01 09:06:02;;;;;;;61.63;51.53;;;;;;;5.59;100.00;102065.16;5052310;28;20049;-78
2023/03/01 09:08:29;;;;;;;63.88;53.97;;;;;;;5.51;100.00;102064.06;5052198;28;20053;-78
2023/03/01 09:10:56;;;;;;;58.80;47.60;;;;;;;5.69;100.00;102060.72;5051868;28;20092;-78
2023/03/01 09:13:24;;;;;;;58.33;49.72;;;;;;;5.83;100.00;102055.00;5052232;28;20118;-78
2023/03/01 09:15:52;;;;;;;60.22;52.70;;;;;;;5.62;100.00;102051.69;5052026;28;20528;-78
2023/03/01 09:18:19;;;;;;;53.35;47.55;;;;;;;6.16;100.00;102044.94;5052104;28;20071;-78
2023/03/01 09:20:46;;;;;;;59.25;46.25;;;;;;;5.62;100.00;102046.44;5051940;28;20084;-78
2023/03/01 09:23:12;;;;;;;53.90;45.80;;;;;;;5.86;100.00;102054.72;5052087;28;20045;-78
2023/03/01 09:25:39;;;;;;;66.82;52.80;;;;;;;5.93;100.00;102039.19;5052097;28;20045;-78
2023/03/01 09:28:06;;;;;;;63.70;50.05;;;;;;;5.76;100.00;102045.16;5051828;28;20580;-78
2023/03/01 09:30:32;;;;;;;58.20;46.55;;;;;;;5.48;100.00;102053.81;5051885;28;20045;-78
2023/03/01 09:33:01;;;;;;;57.53;43.78;;;;;;;6.36;100.00;102043.91;5051738;28;20049;-78
2023/03/01 09:35:27;;;;;;;55.70;44.95;;;;;;;6.08;100.00;102055.38;5051805;28;20045;-78
2023/03/01 09:37:54;;;;;;;55.25;44.08;;;;;;;6.65;100.00;102050.81;5051987;28;20053;-78
2023/03/01 09:40:23;;;;;;;62.65;47.55;;;;;;;5.74;100.00;102045.31;5051763;28;20045;-78
2023/03/01 09:43:00;;;;;;;57.75;43.40;;;;;;;6.45;100.00;102050.13;5051619;28;20099;-78
2023/03/01 09:45:34;;;;;;;57.90;44.28;;;;;;;6.28;100.00;102049.06;5051684;28;20102;-78
2023/03/01 09:48:04;;;;;;;61.42;47.25;;;;;;;5.70;100.00;102046.56;5051829;28;20122;-77
2023/03/01 09:50:36;;;;;;;59.28;47.70;;;;;;;5.60;100.00;102045.72;5054799;28;20110;-78
2023/03/01 09:53:06;;;;;;;64.57;51.20;;;;;;;5.85;100.00;102050.41;5055274;28;20111;-78
2023/03/01 09:55:40;;;;;;;55.63;46.47;;;;;;;6.97;100.00;102054.81;5055548;28;20052;-78
2023/03/01 09:58:30;;;;;;;58.88;44.42;;;;;;;6.31;100.00;102040.03;5055783;28;20075;-78
2023/03/01 10:01:03;;;;;;;58.55;44.92;;;;;;;5.80;100.00;102038.63;5055469;28;20178;-78
2023/03/01 10:03:37;;;;;;;63.40;49.70;;;;;;;5.59;100.00;102039.63;5055352;28;20057;-78
2023/03/01 10:06:11;;;;;;;68.18;49.53;;;;;;;5.76;100.00;102045.16;5055089;28;20563;-78
2023/03/01 10:08:43;;;;;;;63.55;47.60;;;;;;;5.98;100.00;102044.88;5055100;28;20118;-78
2023/03/01 10:11:21;;;;;;;59.93;45.70;;;;;;;5.65;100.00;102052.25;5054908;28;20498;-78
2023/03/01 10:13:55;;;;;;;63.03;47.70;;;;;;;5.69;100.00;102047.56;5055275;28;20295;-78
2023/03/01 10:16:30;;;;;;;65.18;50.00;;;;;;;5.63;100.00;102038.41;5055225;28;20053;-77
2023/03/01 10:19:02;;;;;;;64.45;49.22;;;;;;;5.79;100.00;102036.97;5055028;28;20053;-78
2023/03/01 10:21:31;;;;;;;62.92;50.03;;;;;;;5.78;100.00;102028.25;5054772;28;20530;-78
2023/03/01 10:24:11;;;;;;;64.25;49.25;;;;;;;5.89;100.00;102029.88;5054753;28;20522;-78
2023/03/01 10:26:49;;;;;;;68.30;49.58;;;;;;;5.96;100.00;102025.69;5054614;28;20103;-78
2023/03/01 10:29:16;;;;;;;69.38;50.20;;;;;;;6.07;100.00;102016.78;5054931;28;20053;-78
2023/03/01 10:31:47;;;;;;;71.43;57.70;;;;;;;5.86;100.00;102022.25;5054544;28;20490;-78
2023/03/01 10:34:18;;;;;;;69.90;56.20;;;;;;;5.69;100.00;102018.56;5054388;28;20049;-78
2023/03/01 10:36:49;;;;;;;64.82;52.08;;;;;;;5.92;100.00;102008.47;5054996;28;20103;-78
2023/03/01 10:39:19;;;;;;;65.80;49.30;;;;;;;6.06;100.00;102012.50;5054669;28;20049;-77
2023/03/01 10:41:56;;;;;;;66.47;51.05;;;;;;;6.06;100.00;102008.06;5054445;28;20052;-77
2023/03/01 10:44:41;;;;;;;70.05;54.45;;;;;;;5.87;100.00;102014.19;5054397;28;20579;-78
2023/03/01 10:47:16;;;;;;;68.63;51.33;;;;;;;5.90;100.00;102013.06;5054422;28;20045;-78
2023/03/01 10:49:58;;;;;;;68.28;49.90;;;;;;;5.91;100.00;102006.84;5054551;28;20099;-78
2023/03/01 10:52:27;;;;;;;70.85;50.72;;;;;;;5.91;100.00;102007.66;5054426;28;20049;-78
2023/03/01 10:54:57;;;;;;;63.58;46.90;;;;;;;5.66;100.00;102003.03;5053936;28;20049;-77
2023/03/01 10:57:30;;;;;;;64.00;47.58;;;;;;;5.89;100.00;102000.84;5054536;28;20049;-78
2023/03/01 11:00:11;;;;;;;64.97;53.50;;;;;;;5.75;100.00;101996.91;5053660;28;20114;-77
2023/03/01 11:02:38;;;;;;;68.15;51.10;;;;;;;5.65;100.00;101993.44;5053096;28;20126;-78
2023/03/01 11:05:20;;;;;;;67.22;50.35;;;;;;;5.83;100.00;101982.97;5054112;28;20041;-78
2023/03/01 11:07:51;;;;;;;72.28;59.60;;;;;;;6.05;100.00;101981.81;5054227;28;20056;-78
2023/03/01 11:10:19;;;;;;;65.80;49.85;;;;;;;5.96;100.00;101975.59;5054144;28;20053;-78
2023/03/01 11:12:46;;;;;;;63.72;46.17;;;;;;;6.19;100.00;101971.59;5054028;28;20048;-78
2023/03/01 11:15:23;;;;;;;64.10;46.47;;;;;;;6.53;100.00;101978.91;5054304;28;20110;-78
2023/03/01 11:17:50;;;;;;;65.22;45.72;;;;;;;6.01;100.00;101970.72;5054185;28;20130;-78
2023/03/01 11:20:27;;;;;;;59.60;43.65;;;;;;;5.92;100.00;101967.13;5053931;28;20052;-78